Belgica — ORGQ — position and weather

sailwx.info

Track history (hours):
 
Tides and Currents Weather Stations Pressure Air Temp Water Temp Dewpoint Dewpoint Depression Visibility Wind Speed Wind Dir Waves Ship Positions

Oceanographic research ship Belgica (Belgium)

Detailed information on ship capabilities available from University of Delaware's Ocean Information Center.

Last reported at 2020-Jul-03 17:53 UTC. Time now 2020-Jul-03 19:58 UTC.
Position N 51°20' E 003°12'.

Length 51 m; draft 4.7 m.

MMSI: 205218000.

Date/timePositionNaut miles runAvg speedWind from/ knotsBaromVisibWave heightAir tempDewpointWater temp
2020-Jul-03 17:53N 51°20' E 003°12'0 0.0
2020-Jul-03 16:20N 51°20' E 003°12'0 0.0
2020-Jul-03 15:59N 51°20' E 003°12'0 0.0
2020-Jul-03 15:29N 51°20' E 003°12'0 0.0
2020-Jul-03 14:29N 51°20' E 003°12'0 0.0
2020-Jul-03 13:56N 51°20' E 003°12'0 0.0
2020-Jul-03 13:29N 51°20' E 003°12'9 2.7
2020-Jul-03 10:18N 51°29' E 003°13'1 4.0
2020-Jul-03 10:00N 51°29' E 003°11'1 1.6
2020-Jul-03 09:30N 51°28' E 003°10'1 1.2
2020-Jul-03 08:31N 51°28' E 003°08'0 6.1
2020-Jul-03 08:26N 51°28' E 003°09'8 4.2
2020-Jul-03 06:28N 51°20' E 003°12'0 0.0
2020-Jul-03 03:52N 51°20' E 003°12'0 0.0
2020-Jul-03 02:58N 51°20' E 003°12'0 0.0
2020-Jul-03 02:28N 51°20' E 003°12'0 0.0
2020-Jul-02 20:25N 51°20' E 003°12'0 0.0
2020-Jul-02 19:25N 51°20' E 003°12'0 0.0
2020-Jul-02 18:28N 51°20' E 003°12'0 0.0
2020-Jul-02 15:58N 51°20' E 003°12'0 0.1
2020-Jul-02 14:30N 51°20' E 003°12'5 1.8
2020-Jul-02 11:29N 51°25' E 003°13'2 3.4
2020-Jul-02 11:00N 51°27' E 003°13'1 1.9
2020-Jul-02 10:29N 51°27' E 003°11'1 1.4
2020-Jul-02 09:29N 51°28' E 003°12'1 2.5
2020-Jul-02 08:58N 51°28' E 003°10'8 3.0
2020-Jul-02 06:28N 51°20' E 003°12'0 0.0
2020-Jul-02 03:58N 51°20' E 003°12'0 0.0
2020-Jul-02 03:28N 51°20' E 003°12'0 0.0
2020-Jul-02 02:28N 51°20' E 003°12'0 0.0
2020-Jul-02 01:28N 51°20' E 003°12'0 0.0
2020-Jul-01 23:28N 51°20' E 003°12'0 0.0
2020-Jul-01 18:30N 51°20' E 003°12'0 0.0
2020-Jul-01 16:00N 51°20' E 003°12'10 4.0
2020-Jul-01 13:30N 51°30' E 003°09'10 1.2
2020-Jul-01 05:25N 51°20' E 003°12'0 0.0
2020-Jul-01 03:55N 51°20' E 003°12'0 0.0
2020-Jul-01 02:25N 51°20' E 003°12'0 0.0
2020-Jun-30 23:54N 51°20' E 003°12'0 0.0
2020-Jun-30 18:24N 51°20' E 003°12'0 0.0
2020-Jun-30 18:00N 51°20' E 003°12'0 0.0
2020-Jun-30 17:30N 51°20' E 003°12'0 0.0
2020-Jun-30 16:30N 51°20' E 003°12'0 0.0
2020-Jun-30 15:30N 51°20' E 003°12'0 0.0
2020-Jun-30 12:00N 51°20' E 003°12'0 0.0
2020-Jun-30 06:18N 51°20' E 003°12'0 0.0
2020-Jun-29 22:42N 51°20' E 003°12'0 0.0
2020-Jun-29 21:18N 51°20' E 003°12'0 0.0
2020-Jun-29 16:18N 51°20' E 003°12'0 0.0
2020-Jun-29 15:57N 51°20' E 003°12'0 0.0
2020-Jun-29 13:30N 51°20' E 003°12'0 0.0
2020-Jun-29 06:56N 51°20' E 003°12'0 0.0
2020-Jun-29 05:29N 51°20' E 003°12'0 0.0
2020-Jun-29 04:23N 51°20' E 003°12'0 0.0
2020-Jun-29 00:29N 51°20' E 003°12'0 0.0
2020-Jun-28 23:17N 51°20' E 003°12'0 0.0
2020-Jun-28 22:29N 51°20' E 003°12'0 0.0
2020-Jun-28 21:59N 51°20' E 003°12'0 0.0
2020-Jun-28 21:29N 51°20' E 003°12'0 0.0
2020-Jun-28 18:29N 51°20' E 003°12'0 0.0
2020-Jun-28 14:29N 51°20' E 003°12'0 0.0
2020-Jun-28 13:29N 51°20' E 003°12'0 0.0
2020-Jun-28 11:53N 51°20' E 003°12'0 0.0
2020-Jun-28 07:29N 51°20' E 003°12'0 0.0
2020-Jun-28 04:59N 51°20' E 003°12'0 0.0
2020-Jun-28 02:29N 51°20' E 003°12'0 0.0
2020-Jun-28 01:29N 51°20' E 003°12'0 0.0
2020-Jun-27 22:58N 51°20' E 003°12'0 0.0
2020-Jun-27 22:28N 51°20' E 003°12'0 0.0
2020-Jun-27 19:28N 51°20' E 003°12'0 0.0
2020-Jun-27 18:52N 51°20' E 003°12'0 0.0
2020-Jun-27 16:28N 51°20' E 003°12'0 0.0
2020-Jun-27 13:46N 51°20' E 003°12'0 0.0
2020-Jun-27 13:28N 51°20' E 003°12'0 0.0
2020-Jun-27 09:22N 51°20' E 003°12'0 0.0
2020-Jun-27 07:55N 51°20' E 003°12'0 0.0
2020-Jun-27 07:25N 51°20' E 003°12'0 0.0
2020-Jun-27 05:55N 51°20' E 003°12'0 0.0
2020-Jun-27 02:25N 51°20' E 003°12'0 0.0
2020-Jun-27 01:58N 51°20' E 003°12'0 0.0
2020-Jun-27 00:40N 51°20' E 003°12'0 0.0
2020-Jun-26 20:31N 51°20' E 003°12'0 0.0
2020-Jun-26 20:28N 51°20' E 003°12'0 0.0
2020-Jun-26 18:58N 51°20' E 003°12'0 0.0
2020-Jun-26 17:22N 51°20' E 003°12'0 0.0
2020-Jun-26 15:58N 51°20' E 003°12'0 0.0
2020-Jun-26 13:58N 51°20' E 003°12'0 0.0
2020-Jun-26 12:27N 51°20' E 003°12'0 0.0
2020-Jun-26 12:00N 51°20' E 003°12'0 0.0
2020-Jun-26 11:15N 51°20' E 003°12'0 0.0
2020-Jun-26 11:00N 51°20' E 003°12'0 0.0
2020-Jun-26 07:57N 51°20' E 003°12'0 0.0
2020-Jun-26 07:27N 51°20' E 003°12'0 0.0
2020-Jun-26 07:00N 51°20' E 003°12'0 0.0
2020-Jun-26 06:00N 51°20' E 003°12'0 0.0
2020-Jun-26 05:27N 51°20' E 003°12'0 0.0
2020-Jun-26 02:30N 51°20' E 003°12'0 0.0
2020-Jun-26 00:30N 51°20' E 003°12'0 0.0
2020-Jun-25 19:54N 51°20' E 003°12'0 0.0
2020-Jun-25 19:00N 51°20' E 003°12'0 0.0
2020-Jun-25 18:00N 51°20' E 003°12'0 0.0
2020-Jun-25 16:30N 51°20' E 003°12'13 6.7
2020-Jun-25 14:31N 51°29' E 002°56'11 7.6
2020-Jun-25 13:00N 51°38' E 002°46'0 0.2
2020-Jun-25 12:31N 51°38' E 002°46'1 2.4
2020-Jun-25 12:00N 51°37' E 002°47'3 6.2
2020-Jun-25 11:31N 51°35' E 002°51'3 1.7
2020-Jun-25 09:30N 51°32' E 002°52'7 7.1
2020-Jun-25 08:30N 51°27' E 003°01'10 2.8
2020-Jun-25 04:58N 51°20' E 003°12'0 0.0
2020-Jun-25 03:58N 51°20' E 003°12'0 0.0
2020-Jun-25 02:58N 51°20' E 003°12'0 0.0
2020-Jun-25 01:59N 51°20' E 003°12'0 0.0
2020-Jun-25 01:28N 51°20' E 003°12'0 0.0
2020-Jun-24 23:55N 51°20' E 003°12'0 0.0
2020-Jun-24 20:58N 51°20' E 003°12'3 1.4
2020-Jun-24 18:30N 51°23' E 003°10'29 9.6
2020-Jun-24 15:30N 51°28' E 002°24'2 1.3
2020-Jun-24 14:00N 51°28' E 002°21'0 0.0
2020-Jun-24 12:00N 51°27' E 002°21'0 0.0
2020-Jun-24 11:30N 51°27' E 002°21'2 1.6
2020-Jun-24 10:00N 51°26' E 002°24'31 9.7
2020-Jun-24 06:50N 51°20' E 003°12'0 0.0
2020-Jun-24 06:00N 51°20' E 003°12'0 0.0
2020-Jun-24 04:00N 51°20' E 003°12'0 0.0
2020-Jun-24 03:00N 51°20' E 003°12'0 0.0
2020-Jun-24 02:30N 51°20' E 003°12'0 0.0
2020-Jun-24 01:00N 51°20' E 003°12'0 0.0
2020-Jun-23 22:00N 51°20' E 003°12'0 0.0
2020-Jun-23 21:30N 51°20' E 003°12'0 0.0
2020-Jun-23 18:30N 51°20' E 003°12'  
Track history (hours):
 
Tides and Currents Weather Stations Pressure Air Temp Water Temp Dewpoint Dewpoint Depression Visibility Wind Speed Wind Dir Waves Ship Positions

Oceanographic research ship Belgica (Belgium)

Detailed information on ship capabilities available from University of Delaware's Ocean Information Center.

Last reported at 2020-Jul-03 17:53 UTC. Time now 2020-Jul-03 19:58 UTC.
Position N 51°20' E 003°12'.

Length 51 m; draft 4.7 m.

MMSI: 205218000.

Date/timePositionNaut miles runAvg speedWind from/ knotsBaromVisibWave heightAir tempDewpointWater temp
2020-Jul-03 17:53N 51°20' E 003°12'0 0.0
2020-Jul-03 16:20N 51°20' E 003°12'0 0.0
2020-Jul-03 15:59N 51°20' E 003°12'0 0.0
2020-Jul-03 15:29N 51°20' E 003°12'0 0.0
2020-Jul-03 14:29N 51°20' E 003°12'0 0.0
2020-Jul-03 13:56N 51°20' E 003°12'0 0.0
2020-Jul-03 13:29N 51°20' E 003°12'9 2.7
2020-Jul-03 10:18N 51°29' E 003°13'1 4.0
2020-Jul-03 10:00N 51°29' E 003°11'1 1.6
2020-Jul-03 09:30N 51°28' E 003°10'1 1.2
2020-Jul-03 08:31N 51°28' E 003°08'0 6.1
2020-Jul-03 08:26N 51°28' E 003°09'8 4.2
2020-Jul-03 06:28N 51°20' E 003°12'0 0.0
2020-Jul-03 03:52N 51°20' E 003°12'0 0.0
2020-Jul-03 02:58N 51°20' E 003°12'0 0.0
2020-Jul-03 02:28N 51°20' E 003°12'0 0.0
2020-Jul-02 20:25N 51°20' E 003°12'0 0.0
2020-Jul-02 19:25N 51°20' E 003°12'0 0.0
2020-Jul-02 18:28N 51°20' E 003°12'0 0.0
2020-Jul-02 15:58N 51°20' E 003°12'0 0.1
2020-Jul-02 14:30N 51°20' E 003°12'5 1.8
2020-Jul-02 11:29N 51°25' E 003°13'2 3.4
2020-Jul-02 11:00N 51°27' E 003°13'1 1.9
2020-Jul-02 10:29N 51°27' E 003°11'1 1.4
2020-Jul-02 09:29N 51°28' E 003°12'1 2.5
2020-Jul-02 08:58N 51°28' E 003°10'8 3.0
2020-Jul-02 06:28N 51°20' E 003°12'0 0.0
2020-Jul-02 03:58N 51°20' E 003°12'0 0.0
2020-Jul-02 03:28N 51°20' E 003°12'0 0.0
2020-Jul-02 02:28N 51°20' E 003°12'0 0.0
2020-Jul-02 01:28N 51°20' E 003°12'0 0.0
2020-Jul-01 23:28N 51°20' E 003°12'0 0.0
2020-Jul-01 18:30N 51°20' E 003°12'0 0.0
2020-Jul-01 16:00N 51°20' E 003°12'10 4.0
2020-Jul-01 13:30N 51°30' E 003°09'10 1.2
2020-Jul-01 05:25N 51°20' E 003°12'0 0.0
2020-Jul-01 03:55N 51°20' E 003°12'0 0.0
2020-Jul-01 02:25N 51°20' E 003°12'0 0.0
2020-Jun-30 23:54N 51°20' E 003°12'0 0.0
2020-Jun-30 18:24N 51°20' E 003°12'0 0.0
2020-Jun-30 18:00N 51°20' E 003°12'0 0.0
2020-Jun-30 17:30N 51°20' E 003°12'0 0.0
2020-Jun-30 16:30N 51°20' E 003°12'0 0.0
2020-Jun-30 15:30N 51°20' E 003°12'0 0.0
2020-Jun-30 12:00N 51°20' E 003°12'0 0.0
2020-Jun-30 06:18N 51°20' E 003°12'0 0.0
2020-Jun-29 22:42N 51°20' E 003°12'0 0.0
2020-Jun-29 21:18N 51°20' E 003°12'0 0.0
2020-Jun-29 16:18N 51°20' E 003°12'0 0.0
2020-Jun-29 15:57N 51°20' E 003°12'0 0.0
2020-Jun-29 13:30N 51°20' E 003°12'0 0.0
2020-Jun-29 06:56N 51°20' E 003°12'0 0.0
2020-Jun-29 05:29N 51°20' E 003°12'0 0.0
2020-Jun-29 04:23N 51°20' E 003°12'0 0.0
2020-Jun-29 00:29N 51°20' E 003°12'0 0.0
2020-Jun-28 23:17N 51°20' E 003°12'0 0.0
2020-Jun-28 22:29N 51°20' E 003°12'0 0.0
2020-Jun-28 21:59N 51°20' E 003°12'0 0.0
2020-Jun-28 21:29N 51°20' E 003°12'0 0.0
2020-Jun-28 18:29N 51°20' E 003°12'0 0.0
2020-Jun-28 14:29N 51°20' E 003°12'0 0.0
2020-Jun-28 13:29N 51°20' E 003°12'0 0.0
2020-Jun-28 11:53N 51°20' E 003°12'0 0.0
2020-Jun-28 07:29N 51°20' E 003°12'0 0.0
2020-Jun-28 04:59N 51°20' E 003°12'0 0.0
2020-Jun-28 02:29N 51°20' E 003°12'0 0.0
2020-Jun-28 01:29N 51°20' E 003°12'0 0.0
2020-Jun-27 22:58N 51°20' E 003°12'0 0.0
2020-Jun-27 22:28N 51°20' E 003°12'0 0.0
2020-Jun-27 19:28N 51°20' E 003°12'0 0.0
2020-Jun-27 18:52N 51°20' E 003°12'0 0.0
2020-Jun-27 16:28N 51°20' E 003°12'0 0.0
2020-Jun-27 13:46N 51°20' E 003°12'0 0.0
2020-Jun-27 13:28N 51°20' E 003°12'0 0.0
2020-Jun-27 09:22N 51°20' E 003°12'0 0.0
2020-Jun-27 07:55N 51°20' E 003°12'0 0.0
2020-Jun-27 07:25N 51°20' E 003°12'0 0.0
2020-Jun-27 05:55N 51°20' E 003°12'0 0.0
2020-Jun-27 02:25N 51°20' E 003°12'0 0.0
2020-Jun-27 01:58N 51°20' E 003°12'0 0.0
2020-Jun-27 00:40N 51°20' E 003°12'0 0.0
2020-Jun-26 20:31N 51°20' E 003°12'0 0.0
2020-Jun-26 20:28N 51°20' E 003°12'0 0.0
2020-Jun-26 18:58N 51°20' E 003°12'0 0.0
2020-Jun-26 17:22N 51°20' E 003°12'0 0.0
2020-Jun-26 15:58N 51°20' E 003°12'0 0.0
2020-Jun-26 13:58N 51°20' E 003°12'0 0.0
2020-Jun-26 12:27N 51°20' E 003°12'0 0.0
2020-Jun-26 12:00N 51°20' E 003°12'0 0.0
2020-Jun-26 11:15N 51°20' E 003°12'0 0.0
2020-Jun-26 11:00N 51°20' E 003°12'0 0.0
2020-Jun-26 07:57N 51°20' E 003°12'0 0.0
2020-Jun-26 07:27N 51°20' E 003°12'0 0.0
2020-Jun-26 07:00N 51°20' E 003°12'0 0.0
2020-Jun-26 06:00N 51°20' E 003°12'0 0.0
2020-Jun-26 05:27N 51°20' E 003°12'0 0.0
2020-Jun-26 02:30N 51°20' E 003°12'0 0.0
2020-Jun-26 00:30N 51°20' E 003°12'0 0.0
2020-Jun-25 19:54N 51°20' E 003°12'0 0.0
2020-Jun-25 19:00N 51°20' E 003°12'0 0.0
2020-Jun-25 18:00N 51°20' E 003°12'0 0.0
2020-Jun-25 16:30N 51°20' E 003°12'13 6.7
2020-Jun-25 14:31N 51°29' E 002°56'11 7.6
2020-Jun-25 13:00N 51°38' E 002°46'0 0.2
2020-Jun-25 12:31N 51°38' E 002°46'1 2.4
2020-Jun-25 12:00N 51°37' E 002°47'3 6.2
2020-Jun-25 11:31N 51°35' E 002°51'3 1.7
2020-Jun-25 09:30N 51°32' E 002°52'7 7.1
2020-Jun-25 08:30N 51°27' E 003°01'10 2.8
2020-Jun-25 04:58N 51°20' E 003°12'0 0.0
2020-Jun-25 03:58N 51°20' E 003°12'0 0.0
2020-Jun-25 02:58N 51°20' E 003°12'0 0.0
2020-Jun-25 01:59N 51°20' E 003°12'0 0.0
2020-Jun-25 01:28N 51°20' E 003°12'0 0.0
2020-Jun-24 23:55N 51°20' E 003°12'0 0.0
2020-Jun-24 20:58N 51°20' E 003°12'3 1.4
2020-Jun-24 18:30N 51°23' E 003°10'29 9.6
2020-Jun-24 15:30N 51°28' E 002°24'2 1.3
2020-Jun-24 14:00N 51°28' E 002°21'0 0.0
2020-Jun-24 12:00N 51°27' E 002°21'0 0.0
2020-Jun-24 11:30N 51°27' E 002°21'2 1.6
2020-Jun-24 10:00N 51°26' E 002°24'31 9.7
2020-Jun-24 06:50N 51°20' E 003°12'0 0.0
2020-Jun-24 06:00N 51°20' E 003°12'0 0.0
2020-Jun-24 04:00N 51°20' E 003°12'0 0.0
2020-Jun-24 03:00N 51°20' E 003°12'0 0.0
2020-Jun-24 02:30N 51°20' E 003°12'0 0.0
2020-Jun-24 01:00N 51°20' E 003°12'0 0.0
2020-Jun-23 22:00N 51°20' E 003°12'0 0.0
2020-Jun-23 21:30N 51°20' E 003°12'0 0.0
2020-Jun-23 18:30N 51°20' E 003°12'  

Dump ship's entire track history